Time;durP1;ratioP1;P1;durP2;ratioP2;P2;SDS_P1;SDS_P2;PMS_P1;PMS_P2;Temp;Humidity;BMP_temperature;BMP_pressure;BME280_temperature;BME280_humidity;BME280_pressure;Samples;Min_cycle;Max_cycle;Signal;HPM_P1;HPM_P2
2022/05/17 00:02:22;;;;;;;18.33;16.53;;;15.40;99.90;;;;;;4997750;28;20538;-81
2022/05/17 00:04:49;;;;;;;17.10;15.37;;;15.30;99.90;;;;;;4992364;28;20482;-79
2022/05/17 00:07:18;;;;;;;18.23;16.50;;;15.30;99.90;;;;;;5014705;28;20452;-79
2022/05/17 00:09:45;;;;;;;18.70;16.80;;;15.30;99.90;;;;;;5003119;28;20449;-80
2022/05/17 00:12:13;;;;;;;17.87;15.93;;;15.20;99.90;;;;;;4999868;28;20466;-79
2022/05/17 00:14:40;;;;;;;17.00;15.40;;;15.20;99.90;;;;;;5001036;28;20446;-79
2022/05/17 00:17:09;;;;;;;17.70;16.00;;;15.20;99.90;;;;;;4988616;28;20451;-80
2022/05/17 00:19:37;;;;;;;17.50;15.73;;;15.20;99.90;;;;;;4991071;28;20505;-80
2022/05/17 00:22:04;;;;;;;18.00;16.30;;;15.10;99.90;;;;;;5001167;28;20545;-79
2022/05/17 00:24:32;;;;;;;19.30;17.40;;;15.10;99.90;;;;;;5001001;28;20536;-80
2022/05/17 00:26:59;;;;;;;17.10;15.40;;;15.10;99.90;;;;;;5000987;28;20482;-82
2022/05/17 00:29:26;;;;;;;18.40;16.60;;;15.10;99.90;;;;;;5001779;28;20481;-80
2022/05/17 00:31:53;;;;;;;18.00;16.20;;;15.00;99.90;;;;;;5001415;28;20458;-79
2022/05/17 00:34:20;;;;;;;17.20;15.50;;;15.00;99.90;;;;;;5000531;28;20953;-79
2022/05/17 00:36:47;;;;;;;18.37;16.37;;;15.00;99.90;;;;;;5001945;28;20468;-80
2022/05/17 00:39:14;;;;;;;20.57;16.13;;;15.00;99.90;;;;;;5001744;28;20894;-81
2022/05/17 00:41:42;;;;;;;16.73;15.00;;;15.00;99.90;;;;;;5002517;28;20461;-80
2022/05/17 00:46:57;;;;;;;18.03;16.23;;;14.90;99.90;;;;;;5002998;28;20470;-79
2022/05/17 00:49:27;;;;;;;16.40;14.70;;;14.90;99.90;;;;;;5004536;28;20475;-80
2022/05/17 00:52:00;;;;;;;15.93;14.47;;;14.80;99.90;;;;;;5006789;28;20460;-80
2022/05/17 00:54:27;;;;;;;16.87;15.20;;;14.90;99.90;;;;;;5007832;28;20445;-80
2022/05/17 00:57:02;;;;;;;17.67;15.93;;;14.80;99.90;;;;;;4998617;28;20457;-79
2022/05/17 00:59:30;;;;;;;17.50;15.70;;;14.80;99.90;;;;;;4982575;28;20459;-80
2022/05/17 01:01:56;;;;;;;17.20;15.50;;;14.80;99.90;;;;;;4984308;28;20455;-82
2022/05/17 01:04:25;;;;;;;17.47;15.83;;;14.80;99.90;;;;;;4983521;28;20486;-79
2022/05/17 01:06:57;;;;;;;17.03;15.33;;;14.80;99.90;;;;;;4996428;28;20518;-79
2022/05/17 01:09:25;;;;;;;17.00;15.20;;;14.70;99.90;;;;;;5001278;28;20535;-79
2022/05/17 01:11:52;;;;;;;18.83;15.07;;;14.70;99.90;;;;;;5001989;28;20452;-80
2022/05/17 01:17:06;;;;;;;16.03;14.40;;;14.70;99.90;;;;;;5000691;28;20453;-80
2022/05/17 01:19:33;;;;;;;16.13;14.53;;;14.70;99.90;;;;;;4998502;28;20462;-79
2022/05/17 01:22:01;;;;;;;17.33;15.40;;;14.60;99.90;;;;;;4999369;28;20480;-80
2022/05/17 01:24:28;;;;;;;17.47;15.57;;;14.60;99.90;;;;;;4998519;28;20837;-79
2022/05/17 01:27:00;;;;;;;18.73;15.10;;;14.60;99.90;;;;;;4997639;28;20469;-79
2022/05/17 01:29:27;;;;;;;17.80;14.70;;;14.60;99.90;;;;;;4997720;28;20458;-79
2022/05/17 01:31:54;;;;;;;16.20;14.70;;;14.60;99.90;;;;;;4997752;28;20460;-79
2022/05/17 01:34:21;;;;;;;17.93;14.60;;;14.60;99.90;;;;;;4998891;28;20451;-79
2022/05/17 01:36:48;;;;;;;14.67;13.13;;;14.50;99.90;;;;;;4997609;28;20475;-79
2022/05/17 01:39:16;;;;;;;16.53;14.83;;;14.50;99.90;;;;;;4997538;28;20467;-79
2022/05/17 01:41:43;;;;;;;15.80;14.00;;;14.50;99.90;;;;;;4993395;28;20459;-79
2022/05/17 01:44:10;;;;;;;16.53;14.93;;;14.50;99.90;;;;;;5003093;28;20493;-79
2022/05/17 01:46:37;;;;;;;17.17;15.47;;;14.50;99.90;;;;;;5001227;28;20494;-79
2022/05/17 01:49:04;;;;;;;16.47;14.90;;;14.40;99.90;;;;;;4998605;28;20454;-78
2022/05/17 01:51:31;;;;;;;16.83;15.13;;;14.40;99.90;;;;;;5002466;28;20454;-80
2022/05/17 01:53:57;;;;;;;17.30;15.50;;;14.40;99.90;;;;;;5000752;28;20461;-79
2022/05/17 01:56:26;;;;;;;15.37;13.87;;;14.40;99.90;;;;;;5010164;28;20483;-78
2022/05/17 01:58:52;;;;;;;16.10;14.47;;;14.40;99.90;;;;;;4994470;28;20461;-78
2022/05/17 02:01:19;;;;;;;16.87;15.27;;;14.40;99.90;;;;;;4997436;28;20467;-80
2022/05/17 02:03:46;;;;;;;16.67;15.00;;;14.40;99.90;;;;;;5001160;28;20454;-79
2022/05/17 02:06:13;;;;;;;15.60;14.00;;;14.30;99.90;;;;;;4999953;28;20569;-80
2022/05/17 02:08:39;;;;;;;15.00;13.50;;;14.30;99.90;;;;;;4991753;28;20455;-80
2022/05/17 02:11:06;;;;;;;15.47;13.77;;;14.30;99.90;;;;;;4995420;28;20959;-78
2022/05/17 02:13:35;;;;;;;16.50;15.00;;;14.30;99.90;;;;;;4997704;28;20458;-80
2022/05/17 02:16:04;;;;;;;18.30;15.20;;;14.30;99.90;;;;;;4999589;28;20476;-79
2022/05/17 02:18:30;;;;;;;14.30;12.90;;;14.30;99.90;;;;;;4997790;28;20453;-79
2022/05/17 02:20:57;;;;;;;17.07;15.30;;;14.20;99.90;;;;;;4992325;28;20454;-79
2022/05/17 02:23:24;;;;;;;16.57;14.80;;;14.20;99.90;;;;;;4996212;28;20469;-79
2022/05/17 02:25:51;;;;;;;16.07;13.57;;;14.20;99.90;;;;;;4984151;28;21413;-79
2022/05/17 02:28:17;;;;;;;15.07;13.67;;;14.20;99.90;;;;;;4982278;28;20512;-78
2022/05/17 02:30:46;;;;;;;15.40;13.60;;;14.20;99.90;;;;;;4997094;28;20470;-79
2022/05/17 02:33:14;;;;;;;15.63;14.03;;;14.20;99.90;;;;;;4996281;28;20457;-79
2022/05/17 02:35:41;;;;;;;18.03;14.20;;;14.10;99.90;;;;;;4994353;28;20472;-78
2022/05/17 02:38:09;;;;;;;15.43;13.83;;;14.10;99.90;;;;;;4976836;28;20456;-80
2022/05/17 02:40:36;;;;;;;17.60;15.03;;;14.10;99.90;;;;;;4980117;28;20463;-78
2022/05/17 02:43:04;;;;;;;16.73;14.00;;;14.10;99.90;;;;;;4996520;28;20447;-79
2022/05/17 02:45:31;;;;;;;16.63;14.90;;;14.10;99.90;;;;;;4996194;28;20491;-78
2022/05/17 02:47:59;;;;;;;16.80;14.87;;;14.00;99.90;;;;;;4998735;28;20457;-79
2022/05/17 02:50:26;;;;;;;15.80;14.10;;;14.10;99.90;;;;;;5003665;28;20531;-81
2022/05/17 02:52:53;;;;;;;17.13;14.97;;;14.10;99.90;;;;;;4990840;28;20439;-79
2022/05/17 02:55:20;;;;;;;15.70;13.30;;;14.10;99.90;;;;;;4990124;28;20457;-80
2022/05/17 02:57:47;;;;;;;15.10;12.97;;;14.00;99.90;;;;;;4991005;28;20463;-79
2022/05/17 03:00:16;;;;;;;14.90;13.40;;;14.00;99.90;;;;;;4999883;28;20481;-79
2022/05/17 03:02:43;;;;;;;13.63;12.23;;;14.00;99.90;;;;;;4991156;28;20440;-80
2022/05/17 03:05:14;;;;;;;13.80;12.37;;;14.00;99.90;;;;;;5000874;28;20318;-78
2022/05/17 03:07:41;;;;;;;15.37;13.40;;;14.00;99.90;;;;;;4994528;28;20477;-79
2022/05/17 03:10:09;;;;;;;15.30;13.70;;;14.00;99.90;;;;;;5001877;28;20500;-78
2022/05/17 03:12:36;;;;;;;16.50;14.97;;;14.00;99.90;;;;;;5003074;28;20525;-78
2022/05/17 03:15:03;;;;;;;17.33;13.23;;;14.00;99.90;;;;;;5002140;28;20487;-77
2022/05/17 03:17:30;;;;;;;14.03;12.63;;;14.00;99.90;;;;;;4996946;28;20458;-76
2022/05/17 03:19:57;;;;;;;14.37;12.97;;;14.00;99.90;;;;;;4997558;28;20451;-77
2022/05/17 03:22:25;;;;;;;14.20;12.90;;;14.00;99.90;;;;;;4998185;28;20458;-77
2022/05/17 03:24:52;;;;;;;16.20;13.23;;;14.10;99.90;;;;;;4997895;28;20521;-78
2022/05/17 03:27:19;;;;;;;13.43;12.13;;;14.10;99.90;;;;;;4982829;28;20447;-77
2022/05/17 03:29:47;;;;;;;13.80;12.40;;;14.10;99.90;;;;;;4978774;28;20460;-77
2022/05/17 03:32:14;;;;;;;15.90;13.03;;;14.10;99.90;;;;;;4995192;28;20461;-77
2022/05/17 03:34:41;;;;;;;13.30;11.93;;;14.20;99.90;;;;;;4998646;28;20542;-77
2022/05/17 03:37:07;;;;;;;13.60;12.30;;;14.10;99.90;;;;;;4989732;28;20839;-77
2022/05/17 03:39:36;;;;;;;14.17;12.80;;;14.10;99.90;;;;;;5016588;28;21047;-77
2022/05/17 03:42:03;;;;;;;14.27;12.87;;;14.10;99.90;;;;;;5002590;28;20449;-78
2022/05/17 03:44:29;;;;;;;14.67;13.17;;;14.20;99.90;;;;;;5000567;28;20457;-78
2022/05/17 03:46:56;;;;;;;13.80;12.50;;;14.20;99.90;;;;;;4997745;28;20519;-77
2022/05/17 03:49:23;;;;;;;14.50;12.73;;;14.20;99.90;;;;;;4998342;28;20477;-77
2022/05/17 03:51:50;;;;;;;14.17;12.73;;;14.20;99.90;;;;;;4996336;28;20940;-77
2022/05/17 03:54:21;;;;;;;13.00;11.53;;;14.20;99.90;;;;;;4998803;28;20455;-78
2022/05/17 03:56:50;;;;;;;14.93;13.43;;;14.20;99.90;;;;;;4991810;28;20505;-77
2022/05/17 03:59:16;;;;;;;14.80;13.20;;;14.30;99.90;;;;;;4997748;28;20511;-77
2022/05/17 04:01:44;;;;;;;13.63;12.20;;;14.30;99.90;;;;;;5000438;28;20470;-78
2022/05/17 04:04:11;;;;;;;12.30;11.00;;;14.40;99.90;;;;;;4999638;28;20506;-77
2022/05/17 04:06:38;;;;;;;13.27;11.90;;;14.40;99.90;;;;;;4998095;28;20496;-77
2022/05/17 04:09:06;;;;;;;14.00;12.60;;;14.40;99.90;;;;;;4998283;28;20463;-77
2022/05/17 04:11:33;;;;;;;14.50;13.00;;;14.50;99.90;;;;;;4998184;28;20452;-77
2022/05/17 04:14:02;;;;;;;13.67;12.23;;;14.50;99.90;;;;;;4998072;28;20436;-77
2022/05/17 04:16:31;;;;;;;13.47;12.07;;;14.60;99.90;;;;;;4996994;28;20467;-77
2022/05/17 04:18:59;;;;;;;14.17;12.67;;;14.60;99.90;;;;;;4997943;28;20485;-78
2022/05/17 04:21:26;;;;;;;14.30;12.33;;;14.70;99.90;;;;;;4997748;28;20469;-77
2022/05/17 04:23:53;;;;;;;13.10;11.57;;;14.70;99.90;;;;;;4997094;28;20467;-77
2022/05/17 04:26:20;;;;;;;14.13;12.67;;;14.80;99.90;;;;;;4997647;28;20490;-77
2022/05/17 04:28:47;;;;;;;13.20;11.80;;;14.80;99.90;;;;;;4997311;28;20454;-78
2022/05/17 04:31:16;;;;;;;14.90;12.77;;;14.80;99.90;;;;;;4997750;28;20493;-77
2022/05/17 04:33:43;;;;;;;13.67;12.33;;;14.80;99.90;;;;;;4998049;28;20448;-78
2022/05/17 04:36:10;;;;;;;12.37;11.17;;;14.90;99.90;;;;;;4997524;28;20511;-78
2022/05/17 04:38:38;;;;;;;12.70;11.40;;;15.00;99.90;;;;;;4999354;28;20461;-78
2022/05/17 04:41:05;;;;;;;15.00;12.83;;;15.10;99.90;;;;;;4998812;28;20457;-77
2022/05/17 04:43:32;;;;;;;12.93;11.70;;;15.20;99.90;;;;;;5000046;28;20455;-77
2022/05/17 04:45:59;;;;;;;13.53;12.13;;;15.30;99.90;;;;;;4997930;28;20505;-78
2022/05/17 04:48:27;;;;;;;14.27;12.70;;;15.40;99.90;;;;;;4998583;28;20556;-78
2022/05/17 04:50:55;;;;;;;14.77;10.70;;;15.50;99.90;;;;;;4998228;28;20449;-78
2022/05/17 04:53:21;;;;;;;13.37;12.07;;;15.60;99.90;;;;;;4998754;28;20458;-77
2022/05/17 04:55:48;;;;;;;11.20;10.03;;;15.60;99.90;;;;;;4996527;28;20477;-77
2022/05/17 04:58:16;;;;;;;13.50;12.13;;;15.70;99.90;;;;;;4997492;28;20945;-77
2022/05/17 05:00:43;;;;;;;12.53;11.20;;;15.80;99.90;;;;;;4993425;28;20947;-77
2022/05/17 05:03:10;;;;;;;11.73;10.53;;;15.90;99.90;;;;;;4993433;28;20450;-77
2022/05/17 05:05:38;;;;;;;15.07;11.07;;;16.00;99.90;;;;;;4992698;28;21013;-78
2022/05/17 05:08:06;;;;;;;13.20;11.83;;;16.10;99.90;;;;;;4992676;28;20454;-78
2022/05/17 05:10:33;;;;;;;13.40;11.03;;;16.20;99.90;;;;;;4993097;28;20458;-77
2022/05/17 05:13:00;;;;;;;12.67;11.47;;;16.40;99.90;;;;;;4993488;28;20452;-77
2022/05/17 05:15:26;;;;;;;13.27;11.37;;;16.50;99.90;;;;;;4994038;28;20870;-78
2022/05/17 05:17:53;;;;;;;13.80;12.40;;;16.60;99.90;;;;;;4993037;28;20453;-77
2022/05/17 05:20:20;;;;;;;15.37;11.40;;;16.70;99.90;;;;;;4992498;28;20453;-77
2022/05/17 05:22:48;;;;;;;11.77;10.67;;;16.90;99.90;;;;;;4993012;28;20457;-77
2022/05/17 05:25:16;;;;;;;12.93;10.53;;;17.00;99.90;;;;;;4991843;28;20477;-77
2022/05/17 05:27:43;;;;;;;14.43;10.53;;;17.00;99.90;;;;;;4992731;28;20462;-77
2022/05/17 05:30:13;;;;;;;14.47;10.63;;;17.10;99.90;;;;;;4992985;28;20451;-77
2022/05/17 05:32:40;;;;;;;16.33;11.00;;;17.30;99.90;;;;;;4992714;28;20454;-77
2022/05/17 05:35:08;;;;;;;11.10;9.93;;;17.30;99.90;;;;;;4992390;28;20978;-77
2022/05/17 05:37:34;;;;;;;11.90;10.70;;;17.40;99.90;;;;;;4992528;28;20446;-77
2022/05/17 05:40:03;;;;;;;11.23;9.97;;;17.50;99.90;;;;;;4992257;28;20466;-77
2022/05/17 05:42:30;;;;;;;11.13;10.03;;;17.60;99.90;;;;;;4992111;28;20533;-77
2022/05/17 05:44:57;;;;;;;11.53;10.43;;;17.80;99.90;;;;;;4991766;28;20538;-76
2022/05/17 05:47:23;;;;;;;11.43;10.23;;;17.90;99.90;;;;;;4992028;28;20500;-76
2022/05/17 05:49:50;;;;;;;12.10;9.33;;;18.00;99.90;;;;;;4994825;28;20577;-79
2022/05/17 05:52:18;;;;;;;13.43;9.50;;;18.10;99.90;;;;;;4999534;28;20453;-78
2022/05/17 05:54:45;;;;;;;13.10;10.00;;;18.20;99.90;;;;;;5046394;22;20502;-77
2022/05/17 05:57:13;;;;;;;11.03;9.47;;;18.30;99.90;;;;;;5030566;28;20830;-83
2022/05/17 05:59:39;;;;;;;11.03;9.90;;;18.40;99.90;;;;;;5034582;28;20463;-81
2022/05/17 06:02:07;;;;;;;11.03;9.87;;;18.60;99.90;;;;;;5033170;28;20452;-82
2022/05/17 06:04:35;;;;;;;11.97;10.10;;;18.70;99.90;;;;;;5021017;28;20479;-82
2022/05/17 06:07:02;;;;;;;11.20;9.70;;;18.80;99.90;;;;;;5014954;28;21031;-81
2022/05/17 06:09:32;;;;;;;12.33;10.00;;;18.90;99.90;;;;;;5011621;28;20471;-80
2022/05/17 06:11:59;;;;;;;11.90;9.23;;;19.00;99.90;;;;;;5015655;28;20527;-81
2022/05/17 06:14:34;;;;;;;17.00;9.83;;;19.20;99.90;;;;;;5014161;28;20541;-80
2022/05/17 06:17:04;;;;;;;12.03;9.63;;;19.30;99.90;;;;;;5015615;28;20544;-80
2022/05/17 06:19:33;;;;;;;12.10;9.50;;;19.50;99.90;;;;;;5016943;28;20468;-81
2022/05/17 06:21:59;;;;;;;12.07;8.67;;;19.60;99.90;;;;;;5016690;28;20480;-81
2022/05/17 06:24:27;;;;;;;9.40;8.50;;;19.70;99.90;;;;;;5013017;28;20866;-82
2022/05/17 06:26:54;;;;;;;12.23;9.87;;;19.80;99.90;;;;;;5015889;28;20496;-82
2022/05/17 06:29:21;;;;;;;10.40;9.30;;;19.90;99.90;;;;;;5010920;28;21100;-82
2022/05/17 06:31:49;;;;;;;10.80;8.30;;;20.00;99.90;;;;;;5018610;28;20448;-82
2022/05/17 06:34:15;;;;;;;11.00;8.87;;;20.10;99.90;;;;;;5013525;28;20469;-82
2022/05/17 06:36:42;;;;;;;11.00;8.13;;;20.20;99.90;;;;;;5008909;28;20448;-82
2022/05/17 06:39:10;;;;;;;9.93;6.70;;;20.30;99.90;;;;;;5005692;28;20436;-83
2022/05/17 06:41:37;;;;;;;8.23;6.83;;;20.30;99.90;;;;;;5006770;28;20442;-83
2022/05/17 06:44:05;;;;;;;10.80;7.60;;;20.50;99.90;;;;;;5016660;28;21495;-82
2022/05/17 06:46:32;;;;;;;12.00;7.47;;;20.60;99.90;;;;;;5012171;28;20495;-82
2022/05/17 06:49:01;;;;;;;9.17;7.00;;;20.60;99.90;;;;;;5010051;28;20445;-82
2022/05/17 06:51:27;;;;;;;9.40;6.60;;;20.70;99.90;;;;;;5015591;28;20446;-81
2022/05/17 06:53:54;;;;;;;9.00;6.60;;;20.80;99.90;;;;;;5015931;28;20450;-82
2022/05/17 06:56:21;;;;;;;9.07;5.73;;;20.70;99.90;;;;;;5015941;28;20446;-82
2022/05/17 06:58:48;;;;;;;10.67;5.67;;;20.80;99.90;;;;;;5018633;28;20465;-81
2022/05/17 07:01:14;;;;;;;12.23;6.30;;;20.90;99.90;;;;;;5017350;28;20859;-82
2022/05/17 07:03:43;;;;;;;7.73;5.00;;;20.90;99.90;;;;;;5024787;28;20536;-81
2022/05/17 07:06:11;;;;;;;10.00;4.93;;;20.90;99.90;;;;;;5018923;28;20521;-81
2022/05/17 07:08:38;;;;;;;9.53;5.47;;;20.90;99.90;;;;;;5016357;28;20453;-80
2022/05/17 07:13:49;;;;;;;7.60;4.70;;;21.00;99.90;;;;;;5020307;28;20807;-81
2022/05/17 07:16:16;;;;;;;9.23;4.83;;;21.20;99.90;;;;;;5016595;28;20466;-80
2022/05/17 07:18:42;;;;;;;9.97;4.67;;;21.40;99.90;;;;;;5017009;28;20831;-81
2022/05/17 07:21:12;;;;;;;7.83;4.97;;;21.60;99.90;;;;;;5016551;28;20454;-83
2022/05/17 07:23:40;;;;;;;8.67;4.97;;;21.70;99.90;;;;;;5016067;28;21027;-83
2022/05/17 07:26:08;;;;;;;6.40;4.13;;;21.80;99.90;;;;;;5015977;28;20576;-81
2022/05/17 07:28:40;;;;;;;6.60;4.20;;;21.90;99.90;;;;;;5016137;28;20452;-82
2022/05/17 07:31:07;;;;;;;7.07;4.30;;;22.00;99.90;;;;;;5016074;28;20511;-81
2022/05/17 07:33:34;;;;;;;10.63;4.43;;;22.10;99.90;;;;;;5015480;28;20452;-82
2022/05/17 07:36:01;;;;;;;10.80;4.43;;;22.20;99.90;;;;;;5015314;28;20509;-82
2022/05/17 07:38:29;;;;;;;6.43;4.07;;;22.40;99.90;;;;;;5016133;28;20454;-81
2022/05/17 07:40:57;;;;;;;8.83;5.60;;;22.50;99.90;;;;;;5019439;28;20446;-82
2022/05/17 07:43:24;;;;;;;6.70;4.43;;;22.50;99.90;;;;;;5018025;28;20519;-82
2022/05/17 07:45:51;;;;;;;5.40;3.90;;;22.70;99.90;;;;;;5018831;28;20469;-82
2022/05/17 07:48:19;;;;;;;6.57;4.60;;;22.80;99.90;;;;;;5017907;28;20460;-81
2022/05/17 07:50:46;;;;;;;8.60;4.50;;;22.70;99.90;;;;;;5020695;28;20462;-82
2022/05/17 07:53:15;;;;;;;12.80;4.43;;;22.70;99.90;;;;;;5024603;28;20464;-83
2022/05/17 07:55:45;;;;;;;6.90;4.60;;;22.60;99.90;;;;;;5028685;28;20485;-82
2022/05/17 07:58:13;;;;;;;6.23;4.37;;;22.50;99.90;;;;;;5019973;28;20441;-82
2022/05/17 08:00:42;;;;;;;6.07;4.20;;;22.50;99.90;;;;;;5017678;28;20454;-79
2022/05/17 08:03:10;;;;;;;9.87;5.23;;;22.40;99.90;;;;;;5022771;28;20450;-82
2022/05/17 08:05:37;;;;;;;6.60;4.60;;;22.40;99.90;;;;;;5022489;28;20505;-82
2022/05/17 08:08:04;;;;;;;12.40;4.33;;;22.40;99.90;;;;;;5023842;28;20488;-81
2022/05/17 08:10:32;;;;;;;9.70;4.83;;;22.70;99.90;;;;;;5022077;28;20458;-81
2022/05/17 08:13:00;;;;;;;7.07;4.30;;;22.80;99.90;;;;;;5017882;28;20458;-81
2022/05/17 08:15:28;;;;;;;8.57;4.63;;;23.10;99.90;;;;;;5021080;28;20470;-83
2022/05/17 08:17:56;;;;;;;9.10;5.30;;;23.30;99.90;;;;;;5021359;28;20483;-82
2022/05/17 08:20:23;;;;;;;6.37;3.80;;;23.50;99.90;;;;;;5014466;28;20462;-80
2022/05/17 08:22:50;;;;;;;9.70;4.70;;;23.80;99.90;;;;;;4997456;28;20898;-81
2022/05/17 08:28:06;;;;;;;7.47;6.07;;;23.90;99.90;;;;;;5002677;28;20537;-81
2022/05/17 08:30:34;;;;;;;10.03;5.10;;;23.40;99.90;;;;;;5013474;28;20517;-82
2022/05/17 08:33:16;;;;;;;10.70;6.30;;;23.10;99.90;;;;;;5022702;28;20463;-82
2022/05/17 08:35:45;;;;;;;9.70;5.70;;;23.20;99.90;;;;;;5022725;28;20877;-81
2022/05/17 08:38:15;;;;;;;11.50;6.60;;;23.30;99.90;;;;;;5021763;28;20954;-82
2022/05/17 08:40:56;;;;;;;9.57;4.80;;;23.20;99.90;;;;;;5019218;28;20457;-81
2022/05/17 08:43:30;;;;;;;7.70;5.90;;;23.30;99.90;;;;;;5020223;28;20449;-82
2022/05/17 08:46:10;;;;;;;6.70;5.03;;;23.50;99.90;;;;;;5016563;28;20473;-80
2022/05/17 08:48:44;;;;;;;9.20;5.10;;;23.60;99.90;;;;;;5019578;28;20454;-82
2022/05/17 08:51:16;;;;;;;10.70;6.47;;;23.70;99.90;;;;;;5017556;28;20450;-81
2022/05/17 08:53:44;;;;;;;10.03;6.60;;;23.60;99.90;;;;;;5017849;28;20557;-82
2022/05/17 08:56:12;;;;;;;10.00;6.30;;;23.50;99.90;;;;;;5016743;28;20572;-82
2022/05/17 08:58:42;;;;;;;8.60;6.07;;;23.20;99.90;;;;;;5016900;28;21059;-82
2022/05/17 09:01:19;;;;;;;9.20;6.10;;;23.10;99.90;;;;;;5015696;28;20454;-81
2022/05/17 09:04:00;;;;;;;9.97;5.90;;;23.00;99.90;;;;;;5015178;28;20460;-81
2022/05/17 09:06:33;;;;;;;9.40;6.37;;;22.80;99.90;;;;;;5015503;28;20473;-81
2022/05/17 09:09:05;;;;;;;10.37;6.17;;;22.70;99.90;;;;;;5016696;28;20557;-80
2022/05/17 09:11:44;;;;;;;11.60;7.37;;;22.80;99.90;;;;;;5015961;28;20453;-80
2022/05/17 09:14:15;;;;;;;9.70;5.87;;;22.90;99.90;;;;;;5016099;28;20507;-80
2022/05/17 09:16:46;;;;;;;7.73;6.00;;;23.10;99.90;;;;;;5016816;28;20488;-82
2022/05/17 09:19:14;;;;;;;10.93;6.03;;;23.20;99.90;;;;;;5016693;28;21194;-81
2022/05/17 09:21:43;;;;;;;9.90;5.43;;;23.30;99.90;;;;;;5018445;28;21040;-81
2022/05/17 09:24:12;;;;;;;6.20;4.30;;;23.50;99.90;;;;;;5017577;28;20453;-82
2022/05/17 09:26:40;;;;;;;11.47;6.77;;;23.70;99.90;;;;;;5015898;28;20536;-80
2022/05/17 09:29:15;;;;;;;7.47;4.13;;;23.80;99.90;;;;;;5015136;28;20932;-81
2022/05/17 09:31:52;;;;;;;7.03;3.73;;;23.80;99.90;;;;;;5017119;28;20449;-82
2022/05/17 09:34:28;;;;;;;5.87;3.47;;;23.50;99.90;;;;;;5017216;28;20465;-82
2022/05/17 09:36:57;;;;;;;7.53;3.90;;;23.70;99.90;;;;;;5015086;28;20454;-81
2022/05/17 09:39:27;;;;;;;9.83;3.90;;;23.80;99.90;;;;;;5015081;28;20462;-81
2022/05/17 09:41:57;;;;;;;9.87;3.83;;;23.80;99.90;;;;;;5016614;28;20503;-81
2022/05/17 09:44:27;;;;;;;8.20;4.10;;;23.80;99.90;;;;;;5012018;28;20467;-81
2022/05/17 09:46:59;;;;;;;10.43;3.47;;;23.90;99.90;;;;;;5007043;28;20474;-82
2022/05/17 09:52:35;;;;;;;6.33;2.73;;;23.70;99.90;;;;;;5002242;28;20493;-82
2022/05/17 09:55:22;;;;;;;7.13;3.13;;;23.90;99.90;;;;;;5013229;28;20485;-81
2022/05/17 09:57:57;;;;;;;7.57;3.07;;;23.90;99.90;;;;;;5012984;28;20461;-81
2022/05/17 10:00:28;;;;;;;5.33;2.67;;;24.30;99.90;;;;;;5006280;28;20518;-82
2022/05/17 10:03:00;;;;;;;5.33;3.23;;;24.50;99.90;;;;;;5006074;28;20443;-82
2022/05/17 10:05:30;;;;;;;5.77;2.90;;;24.90;99.90;;;;;;5010579;28;21010;-82
2022/05/17 10:08:01;;;;;;;5.00;2.90;;;25.40;99.90;;;;;;5010819;28;20909;-82
2022/05/17 10:10:38;;;;;;;7.23;4.50;;;25.80;99.90;;;;;;5016053;28;20500;-82
2022/05/17 10:13:14;;;;;;;7.10;4.20;;;25.70;99.90;;;;;;5008471;28;20560;-82
2022/05/17 10:15:45;;;;;;;7.50;3.93;;;26.00;99.90;;;;;;5009445;28;20969;-82
2022/05/17 10:18:27;;;;;;;7.27;4.30;;;26.40;99.90;;;;;;5008219;28;20521;-82
2022/05/17 10:20:58;;;;;;;10.53;5.13;;;26.10;99.90;;;;;;5000689;28;20462;-82
2022/05/17 10:23:30;;;;;;;10.50;4.77;;;26.00;99.90;;;;;;5005508;28;20481;-82
2022/05/17 10:26:03;;;;;;;9.57;4.20;;;25.90;99.90;;;;;;5006806;28;20488;-83
2022/05/17 10:28:39;;;;;;;8.40;4.00;;;25.90;99.90;;;;;;5019987;28;20485;-81
2022/05/17 10:31:14;;;;;;;7.87;4.00;;;25.80;99.90;;;;;;5014125;28;20450;-82
2022/05/17 10:34:02;;;;;;;7.63;4.67;;;25.80;99.90;;;;;;5001578;28;20516;-82
2022/05/17 10:36:37;;;;;;;11.83;5.80;;;25.70;99.90;;;;;;4999538;28;20463;-81
2022/05/17 10:39:12;;;;;;;7.70;5.40;;;24.90;99.90;;;;;;5000260;28;20453;-82
2022/05/17 10:41:39;;;;;;;5.93;4.80;;;25.00;99.90;;;;;;5001030;28;20450;-82
2022/05/17 10:44:06;;;;;;;8.20;5.00;;;25.10;99.90;;;;;;5020419;28;20450;-83
2022/05/17 10:46:38;;;;;;;9.23;5.03;;;25.20;99.90;;;;;;5021055;28;20457;-82
2022/05/17 10:49:20;;;;;;;8.43;5.03;;;25.10;99.90;;;;;;5021759;28;20821;-82
2022/05/17 10:51:58;;;;;;;10.77;5.83;;;25.40;99.90;;;;;;5023330;28;20453;-81
2022/05/17 10:54:41;;;;;;;9.27;5.70;;;25.20;99.90;;;;;;5028778;28;20507;-82
2022/05/17 10:57:19;;;;;;;9.53;5.07;;;25.00;99.90;;;;;;5025200;28;20442;-82
2022/05/17 10:59:55;;;;;;;9.20;4.00;;;25.30;99.90;;;;;;5027477;28;20505;-82
2022/05/17 11:02:53;;;;;;;9.80;4.93;;;25.60;99.90;;;;;;5012675;28;20450;-83
2022/05/17 11:05:30;;;;;;;12.20;5.07;;;25.90;99.90;;;;;;5007700;28;20481;-81
2022/05/17 11:08:06;;;;;;;8.60;3.70;;;26.10;99.90;;;;;;5000332;28;20497;-83
2022/05/17 11:10:42;;;;;;;9.40;5.73;;;26.50;99.90;;;;;;5001240;28;20458;-82
2022/05/17 11:13:15;;;;;;;12.47;4.73;;;26.60;99.90;;;;;;4999324;28;20449;-82
2022/05/17 11:15:47;;;;;;;8.80;4.20;;;26.80;99.90;;;;;;5004889;28;20476;-82
2022/05/17 11:18:22;;;;;;;6.33;3.73;;;27.20;99.90;;;;;;5019166;28;20445;-83
2022/05/17 11:20:53;;;;;;;7.57;3.30;;;27.80;99.90;;;;;;5019685;28;20449;-82
2022/05/17 11:23:39;;;;;;;7.30;3.50;;;28.60;99.90;;;;;;5020333;28;20461;-83
2022/05/17 11:26:39;;;;;;;5.10;3.37;;;28.80;99.90;;;;;;5018996;28;20472;-82
2022/05/17 11:29:37;;;;;;;8.37;3.47;;;29.00;99.90;;;;;;5002861;28;20493;-82
2022/05/17 11:32:17;;;;;;;6.50;3.20;;;28.50;99.90;;;;;;5019267;28;20468;-82
2022/05/17 11:34:46;;;;;;;8.83;3.50;;;28.00;99.90;;;;;;5018759;28;20533;-82
2022/05/17 11:37:46;;;;;;;6.20;3.43;;;27.60;99.90;;;;;;5019023;28;20536;-82
2022/05/17 11:40:53;;;;;;;7.30;4.20;;;27.20;99.90;;;;;;5018594;28;20449;-82
2022/05/17 11:43:43;;;;;;;8.90;3.60;;;26.90;99.90;;;;;;5020079;28;20518;-83
2022/05/17 11:46:42;;;;;;;6.40;3.60;;;26.90;99.90;;;;;;5019774;28;20569;-85
2022/05/17 11:49:45;;;;;;;6.13;3.13;;;26.50;99.90;;;;;;5019872;28;20488;-82
2022/05/17 11:52:25;;;;;;;5.83;3.40;;;26.50;99.90;;;;;;5020203;28;20869;-82
2022/05/17 11:54:54;;;;;;;4.87;2.67;;;26.30;99.90;;;;;;5019927;28;20481;-81
2022/05/17 11:57:58;;;;;;;7.60;2.80;;;26.30;99.90;;;;;;5019914;28;20941;-82
2022/05/17 12:00:41;;;;;;;10.23;4.33;;;26.20;99.90;;;;;;4998187;22;20503;-83
2022/05/17 12:03:22;;;;;;;10.80;3.80;;;25.90;99.90;;;;;;4980876;28;20465;-83
2022/05/17 12:05:58;;;;;;;9.23;3.90;;;25.60;99.90;;;;;;4987929;28;20454;-82
2022/05/17 12:08:36;;;;;;;7.20;2.93;;;25.30;99.90;;;;;;5000708;28;20490;-82
2022/05/17 12:11:16;;;;;;;4.97;2.53;;;25.20;99.90;;;;;;4980463;28;20455;-82
2022/05/17 12:13:50;;;;;;;7.80;3.07;;;25.10;99.90;;;;;;4978829;28;20462;-82
2022/05/17 12:16:20;;;;;;;6.57;3.60;;;25.20;99.90;;;;;;4978848;28;20558;-82
2022/05/17 12:18:50;;;;;;;8.07;3.70;;;25.20;99.90;;;;;;4978765;28;20458;-83
2022/05/17 12:21:39;;;;;;;6.50;3.50;;;25.20;99.90;;;;;;4971142;28;20449;-82
2022/05/17 12:24:19;;;;;;;5.13;3.80;;;25.10;99.90;;;;;;4953192;29;20436;-81
2022/05/17 12:26:56;;;;;;;4.53;3.50;;;24.90;99.90;;;;;;4960210;28;20499;-83
2022/05/17 12:32:19;;;;;;;7.10;4.00;;;24.60;99.90;;;;;;4957691;29;20424;-83
2022/05/17 12:34:53;;;;;;;5.93;3.93;;;24.50;99.90;;;;;;4939192;29;20464;-81
2022/05/17 12:37:26;;;;;;;5.93;4.00;;;24.50;99.90;;;;;;4940025;29;20496;-82
2022/05/17 12:45:27;;;;;;;7.00;4.10;;;24.20;99.90;;;;;;4969825;28;20466;-82
2022/05/17 12:47:56;;;;;;;7.60;3.67;;;24.10;99.90;;;;;;4964247;28;20588;-83
2022/05/17 12:50:25;;;;;;;6.20;3.63;;;24.10;99.90;;;;;;4976714;28;20570;-82
2022/05/17 12:52:54;;;;;;;6.53;3.90;;;24.00;99.90;;;;;;4966554;28;20527;-81
2022/05/17 12:55:26;;;;;;;7.67;3.53;;;24.00;99.90;;;;;;4957702;29;20472;-82
2022/05/17 12:57:53;;;;;;;7.03;3.03;;;23.90;99.90;;;;;;4956516;29;20480;-82
2022/05/17 13:00:26;;;;;;;6.50;3.30;;;23.90;99.90;;;;;;4969985;28;20480;-82
2022/05/17 13:02:58;;;;;;;6.63;3.40;;;23.80;99.90;;;;;;4958248;28;20456;-82
2022/05/17 13:05:31;;;;;;;7.00;3.53;;;23.80;99.90;;;;;;4963508;29;20523;-82
2022/05/17 13:08:05;;;;;;;5.07;3.00;;;23.70;99.90;;;;;;4969233;28;20500;-82
2022/05/17 13:10:35;;;;;;;7.67;3.87;;;23.70;99.90;;;;;;4962722;28;20472;-83
2022/05/17 13:13:16;;;;;;;7.97;3.20;;;23.70;99.90;;;;;;4961963;28;20476;-82
2022/05/17 13:15:55;;;;;;;7.50;4.37;;;23.70;99.90;;;;;;4960965;29;20928;-82